WetterOnline ( https://www.wetteronline.de )

Wetter aktuell Brocken

Aktuelles Wetter: Brocken (1141m)

6-stündlich | Neueste Meldungen
Ortszeit Temperatur Wetter
Fr, 24.05. 20:00 9.5° C bedeckt
Fr, 24.05. 14:00 13.6° C wolkig
Fr, 24.05. 8:00 11.3° C leicht bewölkt
Fr, 24.05. 2:00 9.5° C wolkenlos
Do, 23.05. 20:00 11.2° C bewölkt
Do, 23.05. 14:00 12.9° C wolkig
Do, 23.05. 8:00 7.4° C Nebel
Do, 23.05. 2:00 7.5° C Nebel
Ortszeit Temperatur Wetter
Sa, 25.05. 1:00 8.8° C Nebel
Sa, 25.05. 0:50 8.8° C Nebel
Sa, 25.05. 0:40 8.8° C Nebel
Sa, 25.05. 0:30 8.8° C Nebel
Sa, 25.05. 0:20 8.8° C Nebel
Sa, 25.05. 0:10 9.2° C bedeckt
Sa, 25.05. 0:00 9.5° C bedeckt
Fr, 24.05. 23:30 9.5° C bedeckt
Fr, 24.05. 23:00 9.7° C leichter Regen
Fr, 24.05. 22:30 9.9° C leichter Regen
Fr, 24.05. 22:00 10.0° C leichter Regen
Ortszeit Relative Feuchte Sichtweite
Fr, 24.05. 20:00 87% 45 km
Fr, 24.05. 14:00 71% 50 km
Fr, 24.05. 8:00 74% 30 km
Fr, 24.05. 2:00 85% 29 km
Do, 23.05. 20:00 81% 45 km
Do, 23.05. 14:00 64% 60 km
Do, 23.05. 8:00 98% <100 m
Do, 23.05. 2:00 99% <100 m
Ortszeit Relative Feuchte Sichtweite
Sa, 25.05. 1:00 98% <100 m
Sa, 25.05. 0:50 98% -
Sa, 25.05. 0:40 98% -
Sa, 25.05. 0:30 96% 0.2 km
Sa, 25.05. 0:20 96% -
Sa, 25.05. 0:10 88% -
Sa, 25.05. 0:00 86% 60 km
Fr, 24.05. 23:30 84% 65 km
Fr, 24.05. 23:00 83% 45 km
Fr, 24.05. 22:30 82% 45 km
Fr, 24.05. 22:00 82% 45 km
Ortszeit Niederschlagsmenge Niederschlagsart
Fr, 24.05. 20:00 0.5 l/m2 in 12 Std. Regen
Fr, 24.05. 14:00 0.0 l/m2 in 6 Std. -
Fr, 24.05. 8:00 0.2 l/m2 in 12 Std. -
Fr, 24.05. 2:00 0.2 l/m2 in 6 Std. Regen
Do, 23.05. 20:00 0.0 l/m2 in 12 Std. -
Do, 23.05. 14:00 0.0 l/m2 in 6 Std. Sprühregen
Do, 23.05. 8:00 0.0 l/m2 in 12 Std. -
Do, 23.05. 2:00 0.0 l/m2 in 6 Std. -
Ortszeit Niederschlagsmenge Niederschlagsart
Sa, 25.05. 1:00 0.0 l/m2 in 1 Std. -
Sa, 25.05. 0:50 keine Meldung -
Sa, 25.05. 0:40 keine Meldung -
Sa, 25.05. 0:30 0.0 l/m2 in 30 Min -
Sa, 25.05. 0:20 keine Meldung -
Sa, 25.05. 0:10 keine Meldung -
Sa, 25.05. 0:00 <0.05 l/m2 in 1 Std. Regen
Fr, 24.05. 23:30 <0.05 l/m2 in 30 Min Schneeregen
Fr, 24.05. 23:00 <0.05 l/m2 in 1 Std. Regen
Fr, 24.05. 22:30 <0.05 l/m2 in 30 Min -
Fr, 24.05. 22:00 <0.05 l/m2 in 1 Std. Regen
Ortszeit Stärke Spitze Richtung
km/h Bft. km/h Grad Sektor
Fr, 24.05. 20:00 31 5 52 120° SO
Fr, 24.05. 14:00 30 5 44 90° O
Fr, 24.05. 8:00 22 4 32 80° O
Fr, 24.05. 2:00 11 2 22 90° O
Do, 23.05. 20:00 11 2 36 20° N
Do, 23.05. 14:00 24 4 50 250° W
Do, 23.05. 8:00 41 6 56 270° W
Do, 23.05. 2:00 43 6 58 260° W
Ortszeit Stärke Spitze Richtung
km/h Bft. km/h Grad Sektor
Sa, 25.05. 1:00 9 2 15 80° O
Sa, 25.05. 0:50 9 2 - 80° O
Sa, 25.05. 0:40 9 2 - 80° O
Sa, 25.05. 0:30 7 2 14 80° O
Sa, 25.05. 0:20 7 2 - 80° O
Sa, 25.05. 0:10 11 2 - 90° O
Sa, 25.05. 0:00 13 3 17 110° O
Fr, 24.05. 23:30 14 3 14 130° SO
Fr, 24.05. 23:00 14 3 25 120° SO
Fr, 24.05. 22:30 18 3 25 120° SO
Fr, 24.05. 22:00 22 4 31 120° SO
Ortszeit Untergrenze Bedeckung Gattung
total tief tief mittel hoch
Fr, 24.05. 20:00 <30 m 8/8 0/8 - - -
Fr, 24.05. 14:00 540 m 7/8 3/8 - - -
Fr, 24.05. 8:00 7200 m 6/8 0/8 - - -
Fr, 24.05. 2:00 - 0/8 0/8 - - -
Do, 23.05. 20:00 510 m 7/8 7/8 - - -
Do, 23.05. 14:00 660 m 6/8 6/8 - - -
Do, 23.05. 8:00 <30 m 8/8 0/8 - - -
Do, 23.05. 2:00 <30 m 7/8 0/8 - - -
Ortszeit Bedeckungsgrad in Achtel und Wolkenuntergrenze
Sa, 25.05. 1:00 7(<30m) 7(630m) 8(1800m)
Sa, 25.05. 0:50 7(<30m) 7(630m) 8(1800m)
Sa, 25.05. 0:40 8
Sa, 25.05. 0:30 1(<30m) 4(1380m) 8(1800m)
Sa, 25.05. 0:20 1(<30m) 4(1380m) 8(1800m)
Sa, 25.05. 0:10 8
Sa, 25.05. 0:00 1(1260m) 7(1500m) 8(1800m)
Fr, 24.05. 23:30 6(1290m) 8(1800m) 8(3000m)
Fr, 24.05. 23:00 6(1140m) 8(1380m)
Fr, 24.05. 22:30 6(1350m) 8(1500m)
Fr, 24.05. 22:00 2(1110m) 7(1800m) 8(2400m)
Ortszeit Stationsdruck (hPa) Tendenz (hPa in 3 Std.)
Fr, 24.05. 20:00 887 - 0,8
Fr, 24.05. 14:00 888 - 0,6
Fr, 24.05. 8:00 888 + 0,1
Fr, 24.05. 2:00 888 + 0,1
Do, 23.05. 20:00 887 + 0,5
Do, 23.05. 14:00 886 + 0,6
Do, 23.05. 8:00 884 + 1,0
Do, 23.05. 2:00 882 - 0,2
Ortszeit Stationsdruck (hPa) Tendenz (hPa in 3 Std.)
Sa, 25.05. 1:00 887 0,0
Sa, 25.05. 0:50 887 keine Meldung
Sa, 25.05. 0:40 887 keine Meldung
Sa, 25.05. 0:30 887 + 0,1
Sa, 25.05. 0:20 887 keine Meldung
Sa, 25.05. 0:10 887 keine Meldung
Sa, 25.05. 0:00 887 0,0
Fr, 24.05. 23:30 887 + 0,1
Fr, 24.05. 23:00 887 + 0,1
Fr, 24.05. 22:30 887 0,0
Fr, 24.05. 22:00 887 0,0
Ortszeit Schneehöhe (cm)
Fr, 24.05. 20:00 0
Fr, 24.05. 14:00 0
Fr, 24.05. 8:00 0
Fr, 24.05. 2:00 0
Do, 23.05. 20:00 0
Do, 23.05. 14:00 0
Do, 23.05. 8:00 0
Do, 23.05. 2:00 0
Ortszeit Schneehöhe (cm)
Sa, 25.05. 1:00 0
Sa, 25.05. 0:50 0
Sa, 25.05. 0:40 -
Sa, 25.05. 0:30 0
Sa, 25.05. 0:20 0
Sa, 25.05. 0:10 -
Sa, 25.05. 0:00 0
Fr, 24.05. 23:30 0
Fr, 24.05. 23:00 0
Fr, 24.05. 22:30 0
Fr, 24.05. 22:00 0
Link zu dieser Seite / Seite empfehlen

Das Wetter in ...